Time;durP1;ratioP1;P1;durP2;ratioP2;P2;SDS_P1;SDS_P2;PMS_P1;PMS_P2;Temp;Humidity;BMP_temperature;BMP_pressure;BME280_temperature;BME280_humidity;BME280_pressure;Samples;Min_cycle;Max_cycle;Signal;HPM_P1;HPM_P2
2021/08/23 00:01:47;;;;;;;5.45;3.33;;;;;;;11.80;100.00;101099.75;2572422;55;20117;-71
2021/08/23 00:04:15;;;;;;;4.28;3.30;;;;;;;11.79;100.00;101106.06;2572366;55;20110;-70
2021/08/23 00:06:42;;;;;;;6.72;2.92;;;;;;;11.77;100.00;101104.47;2572247;55;20609;-77
2021/08/23 00:09:09;;;;;;;4.97;3.00;;;;;;;11.73;100.00;101106.53;2572432;55;20109;-71
2021/08/23 00:11:37;;;;;;;5.82;3.17;;;;;;;11.70;100.00;101101.41;2572454;55;20689;-71
2021/08/23 00:14:04;;;;;;;5.70;2.97;;;;;;;11.73;100.00;101105.66;2572461;55;20122;-71
2021/08/23 00:16:31;;;;;;;4.95;2.83;;;;;;;11.73;100.00;101103.00;2572939;55;20612;-70
2021/08/23 00:18:59;;;;;;;4.22;2.97;;;;;;;11.75;100.00;101109.94;2573426;55;20172;-71
2021/08/23 00:21:27;;;;;;;4.37;2.60;;;;;;;11.75;100.00;101109.94;2573270;55;20539;-70
2021/08/23 00:24:05;;;;;;;3.62;2.58;;;;;;;11.78;100.00;101108.88;2573170;55;20651;-78
2021/08/23 00:26:34;;;;;;;3.33;2.60;;;;;;;11.81;100.00;101111.31;2573261;55;20110;-70
2021/08/23 00:29:02;;;;;;;4.30;2.22;;;;;;;11.83;100.00;101115.56;2573179;55;20122;-77
2021/08/23 00:31:33;;;;;;;3.87;2.53;;;;;;;11.87;100.00;101115.34;2573325;55;20117;-71
2021/08/23 00:34:00;;;;;;;4.28;2.83;;;;;;;11.89;100.00;101108.06;2573133;55;20124;-71
2021/08/23 00:36:27;;;;;;;4.22;2.92;;;;;;;11.89;100.00;101108.06;2573430;55;20110;-76
2021/08/23 00:38:54;;;;;;;4.78;2.67;;;;;;;11.90;100.00;101109.75;2573246;55;20140;-77
2021/08/23 00:41:22;;;;;;;5.10;2.83;;;;;;;11.90;100.00;101099.94;2573362;55;20114;-71
2021/08/23 00:43:49;;;;;;;4.82;2.83;;;;;;;11.93;100.00;101098.84;2573230;55;20152;-70
2021/08/23 00:46:17;;;;;;;5.72;2.78;;;;;;;11.90;100.00;101104.41;2573132;55;20126;-71
2021/08/23 00:48:44;;;;;;;4.43;3.67;;;;;;;11.91;100.00;101096.28;2573213;55;20118;-77
2021/08/23 00:51:11;;;;;;;6.35;3.08;;;;;;;11.92;100.00;101099.78;2573202;55;20113;-71
2021/08/23 00:53:39;;;;;;;6.85;3.30;;;;;;;11.92;100.00;101103.31;2573227;55;20106;-77
2021/08/23 00:56:06;;;;;;;5.32;3.00;;;;;;;11.92;100.00;101097.13;2573036;55;20122;-77
2021/08/23 00:58:33;;;;;;;7.07;3.25;;;;;;;11.90;100.00;101099.06;2573084;55;20114;-78
2021/08/23 01:01:06;;;;;;;5.82;3.45;;;;;;;11.92;100.00;101107.81;2573129;55;20128;-78
2021/08/23 01:03:38;;;;;;;4.30;3.50;;;;;;;11.93;100.00;101102.34;2573255;55;20126;-70
2021/08/23 01:06:07;;;;;;;8.38;3.28;;;;;;;11.94;100.00;101105.91;2573174;55;20102;-71
2021/08/23 01:08:38;;;;;;;6.32;3.95;;;;;;;11.93;100.00;101104.19;2573331;55;20489;-71
2021/08/23 01:11:08;;;;;;;5.03;3.53;;;;;;;11.91;100.00;101106.09;2573454;55;20121;-70
2021/08/23 01:13:37;;;;;;;7.30;3.92;;;;;;;11.92;100.00;101102.47;2573163;55;20168;-70
2021/08/23 01:16:05;;;;;;;6.90;4.03;;;;;;;11.94;100.00;101103.22;2573073;55;20125;-71
2021/08/23 01:18:32;;;;;;;4.85;3.28;;;;;;;11.92;100.00;101086.41;2573433;55;20151;-71
2021/08/23 01:21:02;;;;;;;7.22;3.87;;;;;;;11.96;100.00;101098.59;2573242;55;20133;-77
2021/08/23 01:23:31;;;;;;;5.60;4.07;;;;;;;11.96;100.00;101098.59;2573072;55;20125;-71
2021/08/23 01:25:58;;;;;;;4.15;3.50;;;;;;;11.98;100.00;101102.00;2572924;55;20496;-77
2021/08/23 01:28:41;;;;;;;7.82;3.72;;;;;;;12.05;100.00;101099.75;2573123;55;20652;-71
2021/08/23 01:31:21;;;;;;;7.85;3.80;;;;;;;12.04;100.00;101088.22;2573254;55;20093;-77
2021/08/23 01:33:50;;;;;;;8.70;4.37;;;;;;;12.02;100.00;101095.50;2573279;55;20109;-71
2021/08/23 01:36:18;;;;;;;7.15;4.45;;;;;;;11.98;100.00;101080.63;2573060;55;20126;-77
2021/08/23 01:38:46;;;;;;;10.15;5.05;;;;;;;11.96;100.00;101087.91;2573056;55;20264;-76
2021/08/23 01:41:13;;;;;;;9.60;5.07;;;;;;;11.97;100.00;101084.28;2573110;55;20109;-74
2021/08/23 01:43:40;;;;;;;8.55;5.60;;;;;;;11.97;100.00;101078.91;2567815;55;20125;-77
2021/08/23 01:46:07;;;;;;;8.60;5.37;;;;;;;11.98;100.00;101085.97;2573214;55;20117;-77
2021/08/23 01:48:34;;;;;;;11.73;6.05;;;;;;;11.99;100.00;101094.84;2573152;55;20121;-77
2021/08/23 01:51:03;;;;;;;15.65;13.77;;;;;;;11.97;100.00;101094.97;2572895;55;20491;-77
2021/08/23 01:53:31;;;;;;;16.30;10.85;;;;;;;11.96;100.00;101098.59;2573177;55;20188;-77
2021/08/23 01:55:58;;;;;;;14.85;10.30;;;;;;;11.96;100.00;101093.25;2573030;55;20517;-71
2021/08/23 01:58:25;;;;;;;18.25;10.18;;;;;;;11.98;100.00;101096.66;2573070;55;20161;-71
2021/08/23 02:00:52;;;;;;;13.77;7.72;;;;;;;11.98;100.00;101096.66;2573148;55;20128;-72
2021/08/23 02:03:20;;;;;;;9.18;6.25;;;;;;;11.98;100.00;101091.31;2573044;55;20118;-71
2021/08/23 02:05:50;;;;;;;8.60;5.18;;;;;;;12.00;100.00;101094.72;2572924;55;20125;-71
2021/08/23 02:08:18;;;;;;;10.80;6.07;;;;;;;12.00;100.00;101093.88;2572916;55;20648;-76
2021/08/23 02:10:45;;;;;;;12.07;6.25;;;;;;;12.00;100.00;101093.88;2567746;55;20112;-72
2021/08/23 02:13:12;;;;;;;7.55;6.45;;;;;;;11.98;100.00;101096.66;2573180;55;20121;-77
2021/08/23 02:15:39;;;;;;;9.32;6.37;;;;;;;11.98;100.00;101102.00;2572920;55;20172;-76
2021/08/23 02:18:06;;;;;;;10.15;5.93;;;;;;;11.98;100.00;101102.00;2573026;55;20124;-77
2021/08/23 02:20:33;;;;;;;9.95;6.90;;;;;;;11.97;100.00;101100.31;2572950;55;20712;-72
2021/08/23 02:23:00;;;;;;;8.40;4.95;;;;;;;11.97;100.00;101086.94;2572962;55;20119;-76
2021/08/23 02:25:28;;;;;;;8.65;6.00;;;;;;;11.95;100.00;101080.87;2572957;55;20501;-77
2021/08/23 02:27:56;;;;;;;7.87;5.22;;;;;;;11.98;100.00;101075.28;2572992;55;20127;-72
2021/08/23 02:30:24;;;;;;;6.45;5.03;;;;;;;11.97;100.00;101085.13;2572959;55;20608;-77
2021/08/23 02:32:51;;;;;;;9.57;5.28;;;;;;;11.99;100.00;101082.31;2573122;55;20118;-73
2021/08/23 02:35:19;;;;;;;8.75;5.35;;;;;;;11.99;100.00;101090.34;2567820;55;20120;-72
2021/08/23 02:37:46;;;;;;;7.72;5.28;;;;;;;12.04;100.00;101084.69;2572651;55;20604;-77
2021/08/23 02:40:14;;;;;;;8.38;4.85;;;;;;;12.05;100.00;101081.91;2573113;55;20719;-77
2021/08/23 02:42:42;;;;;;;8.85;4.75;;;;;;;12.05;100.00;101076.56;2572777;55;20102;-72
2021/08/23 02:45:10;;;;;;;7.87;4.72;;;;;;;12.10;100.00;101084.22;2573219;55;20117;-77
2021/08/23 02:47:38;;;;;;;7.75;5.32;;;;;;;12.10;100.00;101082.41;2572869;55;20520;-77
2021/08/23 02:50:07;;;;;;;7.78;5.40;;;;;;;12.14;100.00;101084.84;2567662;55;20121;-77
2021/08/23 02:52:34;;;;;;;8.23;4.53;;;;;;;12.17;100.00;101089.97;2572808;55;20128;-71
2021/08/23 02:55:02;;;;;;;6.50;4.85;;;;;;;12.20;100.00;101084.37;2572879;55;20113;-71
2021/08/23 02:57:29;;;;;;;7.03;4.78;;;;;;;12.21;100.00;101075.38;2572824;55;20132;-77
2021/08/23 02:59:57;;;;;;;7.05;4.43;;;;;;;12.23;100.00;101081.47;2572904;55;20097;-77
2021/08/23 03:02:24;;;;;;;6.40;4.50;;;;;;;12.27;100.00;101077.59;2572727;55;20124;-77
2021/08/23 03:04:51;;;;;;;5.25;4.22;;;;;;;12.29;100.00;101075.62;2572867;55;20524;-77
2021/08/23 03:07:18;;;;;;;7.80;4.30;;;;;;;12.32;100.00;101077.22;2572716;55;20117;-77
2021/08/23 03:09:46;;;;;;;5.50;4.45;;;;;;;12.35;100.00;101074.31;2572590;55;20147;-77
2021/08/23 03:12:13;;;;;;;6.40;4.07;;;;;;;12.41;100.00;101084.56;2572749;55;20109;-77
2021/08/23 03:14:40;;;;;;;7.47;4.75;;;;;;;12.48;100.00;101084.94;2572776;55;20721;-71
2021/08/23 03:17:08;;;;;;;5.95;3.58;;;;;;;12.50;100.00;101085.66;2572648;55;20120;-71
2021/08/23 03:19:35;;;;;;;5.80;3.92;;;;;;;12.55;100.00;101083.50;2572840;55;20175;-77
2021/08/23 03:22:02;;;;;;;4.25;3.40;;;;;;;12.56;100.00;101095.91;2572766;55;20109;-77
2021/08/23 03:24:30;;;;;;;5.60;3.67;;;;;;;12.59;100.00;101094.81;2572856;55;20105;-72
2021/08/23 03:26:57;;;;;;;4.97;3.30;;;;;;;12.59;100.00;101101.00;2572638;55;20139;-72
2021/08/23 03:29:24;;;;;;;4.47;3.60;;;;;;;12.61;100.00;101099.03;2572837;55;20114;-77
2021/08/23 03:31:52;;;;;;;4.00;3.60;;;;;;;12.63;100.00;101098.94;2572732;55;20131;-71
2021/08/23 03:34:19;;;;;;;5.18;3.33;;;;;;;12.65;100.00;101108.56;2572764;55;20113;-78
2021/08/23 03:36:48;;;;;;;4.00;3.40;;;;;;;12.64;100.00;101101.50;2572631;55;20742;-78
2021/08/23 03:39:16;;;;;;;6.32;3.50;;;;;;;12.65;100.00;101108.56;2572671;55;20520;-77
2021/08/23 03:41:43;;;;;;;5.15;3.60;;;;;;;12.70;100.00;101107.34;2572649;55;20135;-77
2021/08/23 03:44:10;;;;;;;3.37;2.67;;;;;;;12.71;100.00;101111.72;2572660;55;20114;-71
2021/08/23 03:46:39;;;;;;;4.37;3.12;;;;;;;12.70;100.00;101101.97;2572667;55;20117;-77
2021/08/23 03:49:06;;;;;;;5.32;2.95;;;;;;;12.72;100.00;101108.06;2572806;55;20133;-71
2021/08/23 03:51:33;;;;;;;4.37;3.03;;;;;;;12.73;100.00;101109.78;2573626;55;20118;-72
2021/08/23 03:54:01;;;;;;;4.72;3.37;;;;;;;12.74;100.00;101108.81;2573683;55;20109;-78
2021/08/23 03:56:32;;;;;;;5.10;3.00;;;;;;;12.71;100.00;101109.91;2573678;55;20105;-71
2021/08/23 03:58:59;;;;;;;3.80;3.08;;;;;;;12.73;100.00;101107.13;2573581;55;20135;-71
2021/08/23 04:01:27;;;;;;;6.32;3.90;;;;;;;12.74;100.00;101115.00;2568308;55;20106;-71
2021/08/23 04:03:54;;;;;;;5.28;3.20;;;;;;;12.75;100.00;101116.72;2573579;55;20494;-77
2021/08/23 04:06:21;;;;;;;3.42;3.12;;;;;;;12.78;100.00;101129.00;2573513;55;20615;-71
2021/08/23 04:08:50;;;;;;;7.50;3.33;;;;;;;12.74;100.00;101130.25;2573614;55;20175;-77
2021/08/23 04:11:17;;;;;;;4.65;3.87;;;;;;;12.81;100.00;101136.81;2573395;55;20116;-72
2021/08/23 04:13:45;;;;;;;5.40;3.80;;;;;;;12.79;100.00;101138.75;2573626;55;20129;-78
2021/08/23 04:16:13;;;;;;;5.55;3.72;;;;;;;12.83;100.00;101139.38;2573583;55;20122;-71
2021/08/23 04:18:41;;;;;;;7.43;3.85;;;;;;;12.85;100.00;101143.62;2573512;55;20113;-75
2021/08/23 04:21:08;;;;;;;5.93;4.37;;;;;;;12.88;100.00;101146.06;2573367;55;20114;-72
2021/08/23 04:23:38;;;;;;;4.80;3.70;;;;;;;12.88;100.00;101140.72;2573402;55;20106;-78
2021/08/23 04:26:06;;;;;;;6.68;3.97;;;;;;;12.92;100.00;101141.31;2573313;55;20110;-72
2021/08/23 04:28:34;;;;;;;5.82;4.20;;;;;;;12.92;100.00;101134.12;2573259;55;20128;-78
2021/08/23 04:31:00;;;;;;;5.45;4.32;;;;;;;12.96;100.00;101149.97;2573435;55;20125;-71
2021/08/23 04:33:28;;;;;;;7.32;4.65;;;;;;;12.93;100.00;101143.91;2573382;55;20122;-72
2021/08/23 04:35:56;;;;;;;7.07;4.80;;;;;;;12.99;100.00;101149.72;2573315;55;20110;-77
2021/08/23 04:38:23;;;;;;;6.65;5.18;;;;;;;13.00;100.00;101151.44;2573350;55;20624;-71
2021/08/23 04:40:50;;;;;;;6.87;4.47;;;;;;;13.02;100.00;101154.81;2573411;55;20122;-71
2021/08/23 04:43:18;;;;;;;8.65;3.90;;;;;;;12.96;100.00;101141.94;2568270;55;20511;-78
2021/08/23 04:45:45;;;;;;;8.00;3.53;;;;;;;13.00;100.00;101156.78;2573365;55;20117;-77
2021/08/23 04:48:12;;;;;;;7.07;3.25;;;;;;;13.00;100.00;101154.97;2573380;55;20105;-71
2021/08/23 04:50:39;;;;;;;5.47;3.50;;;;;;;13.04;100.00;101153.75;2573471;55;20143;-71
2021/08/23 04:53:06;;;;;;;5.22;3.40;;;;;;;13.06;100.00;101159.00;2573324;55;20105;-71
2021/08/23 04:55:34;;;;;;;4.22;3.40;;;;;;;13.06;100.00;101151.78;2573204;55;20486;-78
2021/08/23 04:58:01;;;;;;;7.03;3.75;;;;;;;13.08;100.00;101149.88;2573474;55;20560;-77
2021/08/23 05:00:29;;;;;;;5.70;3.42;;;;;;;13.12;100.00;101149.63;2572397;55;20118;-71
2021/08/23 05:02:56;;;;;;;3.70;3.05;;;;;;;13.09;100.00;101150.69;2565533;55;20121;-71
2021/08/23 05:05:23;;;;;;;7.72;4.30;;;;;;;13.18;100.00;101152.66;2570650;55;20137;-72
2021/08/23 05:07:51;;;;;;;7.03;3.50;;;;;;;13.20;100.00;101155.22;2572891;55;20121;-71
2021/08/23 05:10:19;;;;;;;5.03;3.20;;;;;;;13.24;100.00;101153.16;2572950;55;20117;-77
2021/08/23 05:12:46;;;;;;;6.07;3.58;;;;;;;13.28;100.00;101151.91;2573357;55;20140;-72
2021/08/23 05:15:13;;;;;;;4.32;3.60;;;;;;;13.34;100.00;101159.47;2573366;55;20132;-71
2021/08/23 05:17:41;;;;;;;8.88;4.55;;;;;;;13.38;100.00;101165.41;2573447;55;20131;-71
2021/08/23 05:20:09;;;;;;;6.28;4.18;;;;;;;13.42;100.00;101159.69;2573201;55;20110;-77
2021/08/23 05:22:38;;;;;;;6.07;3.47;;;;;;;13.45;100.00;101161.31;2572992;55;20102;-71
2021/08/23 05:25:07;;;;;;;4.82;3.08;;;;;;;13.47;100.00;101160.22;2573164;55;20133;-77
2021/08/23 05:27:35;;;;;;;4.85;3.75;;;;;;;13.41;100.00;101154.47;2573001;55;20105;-76
2021/08/23 05:30:02;;;;;;;5.43;3.20;;;;;;;13.45;100.00;101155.94;2573176;55;20171;-71
2021/08/23 05:32:29;;;;;;;7.97;3.62;;;;;;;13.50;100.00;101154.59;2572105;55;20130;-71
2021/08/23 05:34:58;;;;;;;5.72;3.15;;;;;;;13.58;100.00;101167.41;2572174;55;20109;-71
2021/08/23 05:37:25;;;;;;;5.93;3.03;;;;;;;13.64;100.00;101161.53;2572849;55;20120;-71
2021/08/23 05:39:52;;;;;;;5.35;3.30;;;;;;;13.68;100.00;101155.91;2572213;55;20170;-77
2021/08/23 05:42:20;;;;;;;6.03;3.30;;;;;;;13.70;100.00;101168.22;2572875;55;20169;-72
2021/08/23 05:44:47;;;;;;;7.68;3.20;;;;;;;13.70;100.00;101167.38;2572154;55;20114;-78
2021/08/23 05:47:14;;;;;;;5.60;2.75;;;;;;;13.69;100.00;101161.16;2572701;55;20110;-71
2021/08/23 05:49:41;;;;;;;5.30;3.60;;;;;;;13.68;100.00;101167.50;2572917;55;20114;-78
2021/08/23 05:52:09;;;;;;;3.92;3.00;;;;;;;13.67;100.00;101160.44;2572586;55;20109;-75
2021/08/23 05:54:39;;;;;;;3.95;2.92;;;;;;;13.70;100.00;101162.84;2572346;55;20120;-71
2021/08/23 05:57:06;;;;;;;4.75;2.47;;;;;;;13.70;100.00;101153.97;2572598;55;20610;-71
2021/08/23 05:59:33;;;;;;;4.85;2.70;;;;;;;13.81;100.00;101163.81;2572789;55;20109;-76
2021/08/23 06:02:01;;;;;;;3.55;3.00;;;;;;;13.86;100.00;101165.13;2571040;55;20139;-70
2021/08/23 06:04:38;;;;;;;3.92;2.70;;;;;;;13.99;100.00;101167.66;2569756;55;20524;-73
2021/08/23 06:07:07;;;;;;;3.95;2.75;;;;;;;14.04;100.00;101167.28;2571943;55;20132;-75
2021/08/23 06:09:35;;;;;;;5.15;2.92;;;;;;;14.08;100.00;101173.25;2571362;55;20658;-74
2021/08/23 06:12:04;;;;;;;5.97;2.83;;;;;;;14.11;100.00;101181.03;2569426;55;20114;-74
2021/08/23 06:14:31;;;;;;;6.32;2.78;;;;;;;14.12;100.00;101175.56;2568966;55;20556;-67
2021/08/23 06:16:58;;;;;;;5.07;2.83;;;;;;;14.14;100.00;101176.28;2569627;55;20121;-72
2021/08/23 06:19:25;;;;;;;4.57;2.90;;;;;;;14.16;100.00;101176.16;2564921;55;20167;-69
2021/08/23 06:21:52;;;;;;;6.10;3.12;;;;;;;14.24;100.00;101173.69;2570321;55;20113;-74
2021/08/23 06:24:22;;;;;;;5.12;2.87;;;;;;;14.31;100.00;101169.47;2564948;55;20616;-73
2021/08/23 06:26:49;;;;;;;4.78;2.70;;;;;;;14.42;100.00;101171.28;2572137;55;20105;-74
2021/08/23 06:29:16;;;;;;;3.00;2.37;;;;;;;14.50;100.00;101173.31;2572866;55;20110;-68
2021/08/23 06:31:44;;;;;;;6.20;2.50;;;;;;;14.53;100.00;101178.44;2573120;55;20504;-73
2021/08/23 06:34:11;;;;;;;3.15;2.47;;;;;;;14.56;100.00;101186.22;2573038;55;20110;-74
2021/08/23 06:36:41;;;;;;;3.40;2.45;;;;;;;14.57;100.00;101179.84;2571610;55;20117;-67
2021/08/23 06:39:08;;;;;;;4.87;2.72;;;;;;;14.58;100.00;101181.56;2571682;55;20526;-74
2021/08/23 06:41:35;;;;;;;4.00;2.67;;;;;;;14.57;100.00;101185.22;2571186;55;20117;-74
2021/08/23 06:44:04;;;;;;;3.65;2.50;;;;;;;14.61;100.00;101197.41;2571811;55;20508;-74
2021/08/23 06:46:32;;;;;;;4.22;2.53;;;;;;;14.60;100.00;101187.66;2572863;55;20109;-74
2021/08/23 06:49:00;;;;;;;3.60;2.72;;;;;;;14.61;100.00;101188.50;2572906;55;20132;-68
2021/08/23 06:51:27;;;;;;;3.80;2.42;;;;;;;14.66;100.00;101188.97;2572806;55;20113;-74
2021/08/23 06:53:55;;;;;;;4.43;2.62;;;;;;;14.71;100.00;101191.25;2572845;55;20109;-67
2021/08/23 06:56:22;;;;;;;2.83;2.33;;;;;;;14.70;100.00;101184.19;2572913;55;20139;-72
2021/08/23 06:58:49;;;;;;;3.05;2.35;;;;;;;14.69;100.00;101180.66;2572835;55;20140;-75
2021/08/23 07:01:17;;;;;;;3.47;2.50;;;;;;;14.61;100.00;101175.09;2572794;55;20210;-69
2021/08/23 07:03:46;;;;;;;3.50;2.50;;;;;;;14.67;100.00;101187.13;2572899;55;20491;-68
2021/08/23 07:06:13;;;;;;;3.00;2.10;;;;;;;14.65;100.00;101189.09;2572935;55;20124;-73
2021/08/23 07:08:40;;;;;;;4.18;2.40;;;;;;;14.61;100.00;101192.03;2572669;55;20514;-73
2021/08/23 07:11:07;;;;;;;4.53;3.12;;;;;;;14.56;100.00;101196.97;2572820;55;20114;-68
2021/08/23 07:13:34;;;;;;;3.75;2.40;;;;;;;14.50;100.00;101193.94;2572814;55;20122;-75
2021/08/23 07:16:02;;;;;;;4.05;2.47;;;;;;;14.42;100.00;101194.56;2572845;55;20131;-68
2021/08/23 07:18:31;;;;;;;4.20;2.65;;;;;;;14.39;100.00;101192.16;2572700;55;20113;-75
2021/08/23 07:20:58;;;;;;;3.55;3.05;;;;;;;14.40;100.00;101204.59;2572835;55;20113;-68
2021/08/23 07:23:26;;;;;;;4.47;2.78;;;;;;;14.43;100.00;101186.41;2572673;55;20144;-74
2021/08/23 07:25:54;;;;;;;3.55;2.60;;;;;;;14.46;100.00;101204.09;2572792;55;20627;-68
2021/08/23 07:28:21;;;;;;;4.55;2.30;;;;;;;14.47;100.00;101211.16;2572725;55;20125;-75
2021/08/23 07:30:48;;;;;;;2.87;2.47;;;;;;;14.44;100.00;101206.06;2572661;55;20170;-74
2021/08/23 07:33:15;;;;;;;4.43;2.55;;;;;;;14.46;100.00;101212.97;2572947;55;20595;-74
2021/08/23 07:35:43;;;;;;;3.17;2.35;;;;;;;14.46;100.00;101221.03;2572851;55;20110;-73
2021/08/23 07:38:10;;;;;;;4.82;2.53;;;;;;;14.50;100.00;101216.25;2572801;55;20122;-75
2021/08/23 07:40:38;;;;;;;3.37;2.22;;;;;;;14.54;100.00;101215.03;2572837;55;20124;-69
2021/08/23 07:43:06;;;;;;;3.55;2.47;;;;;;;14.55;100.00;101224.78;2567726;55;20607;-68
2021/08/23 07:45:35;;;;;;;6.60;4.07;;;;;;;14.58;100.00;101219.16;2572839;55;20616;-68
2021/08/23 07:48:03;;;;;;;4.97;3.62;;;;;;;14.49;100.00;101209.19;2572823;55;20106;-68
2021/08/23 07:50:30;;;;;;;3.47;2.45;;;;;;;14.57;100.00;101220.13;2572608;55;20108;-68
2021/08/23 07:52:58;;;;;;;5.18;3.28;;;;;;;14.56;100.00;101231.88;2572648;55;20642;-75
2021/08/23 07:55:26;;;;;;;3.20;2.72;;;;;;;14.56;100.00;101231.00;2572664;55;20118;-74
2021/08/23 07:57:53;;;;;;;4.37;2.35;;;;;;;14.57;100.00;101224.63;2572489;55;20121;-73
2021/08/23 08:00:22;;;;;;;3.85;3.45;;;;;;;14.54;100.00;101228.47;2572764;55;20129;-72
2021/08/23 08:02:50;;;;;;;2.85;2.50;;;;;;;14.49;100.00;101227.97;2572667;55;20122;-74
2021/08/23 08:05:17;;;;;;;3.60;2.37;;;;;;;14.49;100.00;101225.28;2572756;55;20097;-74
2021/08/23 08:07:45;;;;;;;3.78;1.70;;;;;;;14.50;100.00;101220.78;2572719;55;20140;-68
2021/08/23 08:10:14;;;;;;;1.62;1.30;;;;;;;14.49;100.00;101222.59;2572807;55;20747;-69
2021/08/23 08:12:42;;;;;;;2.80;1.40;;;;;;;14.51;100.00;101231.38;2572666;55;20110;-75
2021/08/23 08:15:10;;;;;;;5.20;1.60;;;;;;;14.46;100.00;101220.19;2572639;55;20125;-74
2021/08/23 08:17:37;;;;;;;2.35;1.30;;;;;;;14.66;100.00;101225.72;2572574;55;20620;-74
2021/08/23 08:20:07;;;;;;;2.45;1.55;;;;;;;14.89;100.00;101221.94;2572634;55;20177;-74
2021/08/23 08:22:35;;;;;;;2.03;1.35;;;;;;;15.31;100.00;101222.88;2572473;55;20463;-73
2021/08/23 08:25:03;;;;;;;3.70;2.20;;;;;;;15.91;100.00;101221.28;2572799;55;20125;-74
2021/08/23 08:27:30;;;;;;;5.32;1.87;;;;;;;16.59;100.00;101225.00;2572579;55;20535;-69
2021/08/23 08:29:57;;;;;;;2.10;1.35;;;;;;;17.13;100.00;101221.81;2572624;55;20128;-73
2021/08/23 08:32:26;;;;;;;1.90;1.00;;;;;;;17.37;96.22;101206.00;2572602;55;20117;-74
2021/08/23 08:34:53;;;;;;;3.33;1.23;;;;;;;17.76;94.42;101220.28;2572627;55;20117;-69
2021/08/23 08:37:20;;;;;;;1.67;1.10;;;;;;;18.08;92.94;101218.97;2573040;55;20181;-68
2021/08/23 08:39:47;;;;;;;1.30;1.20;;;;;;;18.20;87.69;101230.41;2573423;55;20118;-68
2021/08/23 08:42:16;;;;;;;1.27;0.70;;;;;;;17.81;85.74;101226.06;2573537;55;20109;-69
2021/08/23 08:44:45;;;;;;;2.35;1.10;;;;;;;17.29;87.73;101222.06;2573478;55;20127;-69
2021/08/23 08:47:16;;;;;;;2.45;0.90;;;;;;;17.32;88.55;101221.75;2568334;55;20170;-68
2021/08/23 08:49:44;;;;;;;3.30;0.82;;;;;;;17.78;89.56;101232.63;2573197;55;20113;-74
2021/08/23 08:52:12;;;;;;;1.90;0.73;;;;;;;18.31;88.37;101232.88;2573404;55;20125;-69
2021/08/23 08:54:42;;;;;;;3.25;0.90;;;;;;;18.58;85.96;101222.16;2573385;55;20515;-69
2021/08/23 08:57:09;;;;;;;1.70;0.80;;;;;;;18.64;81.98;101229.63;2568245;55;20113;-69
2021/08/23 08:59:37;;;;;;;1.77;0.88;;;;;;;18.75;83.17;101234.78;2573368;55;20504;-75
2021/08/23 09:02:05;;;;;;;1.60;0.80;;;;;;;18.90;81.58;101240.47;2573354;55;20110;-75
2021/08/23 09:04:35;;;;;;;0.90;0.75;;;;;;;19.00;82.82;101235.00;2573466;55;20499;-68
2021/08/23 09:07:04;;;;;;;2.67;0.90;;;;;;;18.69;83.07;101243.50;2573190;55;20110;-74
2021/08/23 09:09:32;;;;;;;2.85;0.90;;;;;;;18.72;83.62;101245.88;2573344;55;20120;-71
2021/08/23 09:12:01;;;;;;;1.92;0.60;;;;;;;18.83;80.56;101244.81;2573317;55;20110;-74
2021/08/23 09:14:29;;;;;;;2.30;0.73;;;;;;;19.01;79.88;101247.50;2573011;55;20117;-68
2021/08/23 09:17:04;;;;;;;0.43;0.43;;;;;;;18.94;75.42;101229.34;2573363;55;20133;-74
2021/08/23 09:19:34;;;;;;;1.02;0.60;;;;;;;18.50;77.17;101244.53;2573303;55;20113;-71
2021/08/23 09:22:04;;;;;;;;;;;;;;;18.60;76.91;101247.16;2573602;55;20657;-69
2021/08/23 09:24:33;;;;;;;1.50;0.80;;;;;;;17.80;79.76;101246.84;2573249;55;19989;-68
2021/08/23 09:27:06;;;;;;;1.20;0.75;;;;;;;17.61;83.46;101260.41;2573188;55;20131;-74
2021/08/23 09:29:59;;;;;;;3.17;0.65;;;;;;;17.56;83.35;101249.22;2573330;55;20129;-74
2021/08/23 09:32:29;;;;;;;0.85;0.70;;;;;;;17.57;82.66;101267.09;2573152;55;20114;-68
2021/08/23 09:34:57;;;;;;;1.00;0.68;;;;;;;17.67;82.26;101246.31;2573345;55;20254;-68
2021/08/23 09:37:26;;;;;;;0.88;0.70;;;;;;;17.91;80.79;101258.41;2573269;55;20125;-68
2021/08/23 09:39:54;;;;;;;0.68;0.60;;;;;;;18.08;78.33;101254.09;2573135;55;20513;-68
2021/08/23 09:42:23;;;;;;;1.67;0.62;;;;;;;18.32;83.32;101256.19;2573042;55;20174;-75
2021/08/23 09:44:52;;;;;;;0.90;0.60;;;;;;;18.49;80.45;101256.34;2573248;55;20560;-69
2021/08/23 09:47:27;;;;;;;0.70;0.60;;;;;;;18.45;79.49;101254.94;2572931;55;20277;-75
2021/08/23 09:49:56;;;;;;;1.70;0.65;;;;;;;18.15;79.46;101260.56;2573376;55;20118;-68
2021/08/23 09:52:30;;;;;;;0.85;0.70;;;;;;;17.93;81.78;101256.41;2573180;55;20648;-74
2021/08/23 09:55:02;;;;;;;1.52;0.73;;;;;;;17.67;82.64;101257.97;2572903;55;20166;-68
2021/08/23 09:57:30;;;;;;;2.37;0.70;;;;;;;17.51;84.42;101269.41;2573092;55;20117;-75
2021/08/23 09:59:58;;;;;;;1.67;0.95;;;;;;;17.27;85.10;101252.84;2573216;55;20121;-69
2021/08/23 10:02:27;;;;;;;0.98;0.60;;;;;;;17.21;88.41;101262.38;2573115;55;20124;-68
2021/08/23 10:04:57;;;;;;;2.05;0.60;;;;;;;17.13;87.14;101259.56;2573188;55;20176;-68
2021/08/23 10:07:27;;;;;;;1.40;0.80;;;;;;;16.94;86.55;101267.50;2573011;55;20113;-69
2021/08/23 10:09:59;;;;;;;1.90;0.70;;;;;;;16.85;88.46;101278.31;2573150;55;20220;-73
2021/08/23 10:12:28;;;;;;;1.35;0.60;;;;;;;16.72;87.61;101279.44;2573237;55;20113;-67
2021/08/23 10:14:55;;;;;;;1.35;0.73;;;;;;;16.50;86.87;101281.41;2573137;55;20121;-68
2021/08/23 10:17:22;;;;;;;0.50;0.50;;;;;;;16.33;89.68;101290.19;2572933;55;20120;-73
2021/08/23 10:19:51;;;;;;;1.02;0.50;;;;;;;16.36;90.66;101285.38;2572999;55;20132;-75
2021/08/23 10:22:18;;;;;;;1.00;0.70;;;;;;;16.39;91.04;101300.41;2573022;55;20193;-69
2021/08/23 10:24:48;;;;;;;0.80;0.55;;;;;;;16.37;88.49;101294.31;2573111;55;20122;-75
2021/08/23 10:27:22;;;;;;;4.68;0.70;;;;;;;16.24;90.57;101300.81;2573104;55;20475;-75
2021/08/23 10:29:50;;;;;;;0.60;0.60;;;;;;;16.08;91.80;101298.66;2573057;55;20125;-75
2021/08/23 10:32:17;;;;;;;2.10;0.80;;;;;;;15.86;90.29;101299.69;2572968;55;20525;-75
2021/08/23 10:34:45;;;;;;;3.15;0.75;;;;;;;15.68;92.24;101308.37;2573001;55;20121;-69
2021/08/23 10:37:18;;;;;;;1.45;0.60;;;;;;;15.65;92.82;101311.34;2572878;55;20496;-69
2021/08/23 10:39:45;;;;;;;0.70;0.60;;;;;;;15.62;94.79;101310.75;2573074;55;20137;-74
2021/08/23 10:42:16;;;;;;;0.50;0.50;;;;;;;15.62;94.01;101308.91;2572745;55;20132;-74
2021/08/23 10:44:43;;;;;;;0.77;0.60;;;;;;;15.54;93.64;101316.81;2567897;55;20167;-75
2021/08/23 10:47:14;;;;;;;0.55;0.50;;;;;;;15.47;89.91;101311.09;2572817;55;20135;-68
2021/08/23 10:49:44;;;;;;;0.77;0.55;;;;;;;15.24;89.31;101321.19;2572722;55;20650;-68
2021/08/23 10:52:13;;;;;;;0.62;0.50;;;;;;;15.06;91.46;101328.94;2572780;55;20134;-68
2021/08/23 10:54:42;;;;;;;0.82;0.80;;;;;;;15.09;91.12;101331.41;2572897;55;20125;-68
2021/08/23 10:57:11;;;;;;;0.50;0.32;;;;;;;15.02;91.15;101334.59;2572816;55;20109;-67
2021/08/23 10:59:41;;;;;;;0.70;0.50;;;;;;;15.06;90.95;101329.81;2572685;55;20165;-76
2021/08/23 11:02:11;;;;;;;0.80;0.50;;;;;;;15.11;91.53;101332.13;2573035;55;20120;-69
2021/08/23 11:04:42;;;;;;;0.52;0.50;;;;;;;15.21;93.81;101342.91;2572759;55;20131;-75
2021/08/23 11:07:11;;;;;;;2.62;0.98;;;;;;;15.50;91.39;101326.13;2572883;55;20135;-74
2021/08/23 11:09:41;;;;;;;2.72;0.80;;;;;;;16.00;92.61;101333.47;2572776;55;20674;-69
2021/08/23 11:12:14;;;;;;;2.97;0.70;;;;;;;16.62;88.83;101327.06;2572820;55;20144;-75
2021/08/23 11:14:50;;;;;;;3.05;0.50;;;;;;;17.01;83.60;101332.50;2572912;55;20101;-69
2021/08/23 11:17:29;;;;;;;4.05;1.00;;;;;;;17.30;80.96;101347.78;2572911;55;20117;-75
2021/08/23 11:19:58;;;;;;;0.30;0.30;;;;;;;17.17;79.23;101342.69;2572812;55;20122;-75
2021/08/23 11:22:26;;;;;;;0.75;0.40;;;;;;;16.91;79.29;101337.00;2572787;55;20135;-68
2021/08/23 11:24:54;;;;;;;1.10;0.70;;;;;;;16.63;81.74;101339.53;2572647;55;20620;-68